Flight Track Log - Related Links

Times and Time Zones

All times are in EDT time to prevent confusion due to time zone crossing. See the KAP169 flight status page for this flight to view local times or setup timezone preferences in your user account.


Time Position Orientation Groundspeed Altitude Reporting Facility
EDT Latitude Longitude Course Direction KTS MPH feet Rate Location/Type
Fri 02:19:28 PM 42.3833 -71.0000 36° Northeast 106 122 300  Level KA90
Fri 02:20:13 PM 42.4000 -70.9833 36° Northeast 116 133 1,000 743 Climbing KA90
Fri 02:21:13 PM 42.4167 -70.9667 36° Northeast 114 131 1,600 600 Climbing KA90
Fri 02:22:13 PM 42.4500 -70.9500 20° North 112 129 2,200 667 Climbing KA90
Fri 02:23:19 PM 42.4833 -70.9333 20° North 116 133 3,000 774 Climbing KA90
Fri 02:24:17 PM 42.5167 -70.9000 36° Northeast 118 136 3,800 750 Climbing KA90
Fri 02:25:19 PM 42.5333 -70.8833 36° Northeast 124 143 4,500 650 Climbing KA90
Fri 02:26:17 PM 42.5667 -70.8500 36° Northeast 127 146 5,100 678 Climbing KA90
Fri 02:27:14 PM 42.5833 -70.8167 56° Northeast 127 146 5,800 564 Climbing KA90
Fri 02:28:14 PM 42.6167 -70.7833 36° Northeast 119 137 6,200 488 Climbing KA90
Fri 02:29:17 PM 42.6333 -70.7500 56° Northeast 127 146 6,800 683 Climbing KA90
Fri 02:30:17 PM 42.6667 -70.7333 20° North 122 140 7,600 718 Climbing KA90
Fri 02:31:14 PM 42.6833 -70.7000 56° Northeast 120 138 8,200 564 Climbing KA90
Fri 02:32:14 PM 42.7167 -70.6667 36° Northeast 123 142 8,700 458 Climbing KA90
Fri 02:33:12 PM 42.7500 -70.6333 36° Northeast 127 146 9,100 154 Climbing KA90
Fri 02:34:11 PM 42.7833 -70.6000 36° Northeast 163 188 9,000 -49 Descending KA90
Fri 02:35:14 PM 42.8167 -70.5667 36° Northeast 159 183 9,000  Level KA90
Fri 02:36:14 PM 42.8500 -70.5333 36° Northeast 153 176 9,000  Level KA90
Fri 02:37:14 PM 42.8833 -70.5000 36° Northeast 154 177 9,000  Level KA90
Fri 02:38:18 PM 42.9167 -70.4500 48° Northeast 154 177 9,000  Level KA90
Fri 02:39:21 PM 42.9500 -70.4167 36° Northeast 154 177 9,000  Level KA90
Fri 02:41:00 PM 43.0009 -70.3574 40° Northeast  Level FlightAware Approximate
Fri 02:48:00 PM 43.2267 -70.1226 37° Northeast  Level FlightAware Approximate
Fri 02:49:00 PM 43.2591 -70.0893 37° Northeast  Level FlightAware Approximate
Fri 02:50:00 PM 43.2916 -70.0559 37° Northeast  Level FlightAware Approximate
Fri 02:51:00 PM 43.3240 -70.0225 37° Northeast  Level FlightAware Approximate
Fri 02:52:00 PM 43.3564 -69.9891 37° Northeast  Level FlightAware Approximate
Fri 02:53:00 PM 43.3888 -69.9556 37° Northeast  Level FlightAware Approximate
Fri 02:54:00 PM 43.4212 -69.9221 37° Northeast  Level FlightAware Approximate
Fri 02:55:00 PM 43.4535 -69.8886 37° Northeast  Level FlightAware Approximate
Fri 02:56:00 PM 43.4859 -69.8550 37° Northeast  Level FlightAware Approximate
Fri 02:57:00 PM 43.5183 -69.8214 37° Northeast  Level FlightAware Approximate
Fri 02:58:00 PM 43.5506 -69.7878 37° Northeast  Level FlightAware Approximate
Fri 02:59:00 PM 43.5830 -69.7541 37° Northeast  Level FlightAware Approximate
Fri 03:00:00 PM 43.6153 -69.7204 37° Northeast  Level FlightAware Approximate
Fri 03:01:00 PM 43.6476 -69.6866 37° Northeast  Level FlightAware Approximate
Fri 03:02:00 PM 43.6796 -69.6522 39° Northeast  Level FlightAware Approximate
Fri 03:03:00 PM 43.7110 -69.6169 39° Northeast  Level FlightAware Approximate
Fri 03:04:00 PM 43.7424 -69.5815 39° Northeast  Level FlightAware Approximate
Fri 03:05:00 PM 43.7739 -69.5461 39° Northeast  Level FlightAware Approximate
Fri 03:06:00 PM 43.8055 -69.5111 36° Northeast  Level FlightAware Approximate
Fri 03:07:00 PM 43.8384 -69.4783 36° Northeast  Level FlightAware Approximate
Fri 03:08:00 PM 43.8700 -69.4433 40° Northeast  Level FlightAware Approximate
Fri 03:09:00 PM 43.9011 -69.4072 40° Northeast  Level FlightAware Approximate
Fri 03:10:00 PM 43.9321 -69.3710 40° Northeast  Level FlightAware Approximate
Fri 03:11:00 PM 43.9583 -69.3293 61° Northeast  Level FlightAware Approximate
Fri 03:12:00 PM 43.9780 -69.2801 61° Northeast  Level FlightAware Approximate

Login

Don't have an account? Register now (free) for customized features, flight alerts, and more!